sensor_id;sensor_type;location;lat;lon;timestamp;P1;durP1;ratioP1;P2;durP2;ratioP2
14116;SDS011;7137;51.436;6.544;2024-02-26T00:02:57;4.80;;;2.13;;
14116;SDS011;7137;51.436;6.544;2024-02-26T00:05:59;4.63;;;2.10;;
14116;SDS011;7137;51.436;6.544;2024-02-26T00:09:00;5.70;;;2.60;;
14116;SDS011;7137;51.436;6.544;2024-02-26T00:12:04;5.60;;;2.33;;
14116;SDS011;7137;51.436;6.544;2024-02-26T00:15:06;4.43;;;2.20;;
14116;SDS011;7137;51.436;6.544;2024-02-26T00:18:08;4.63;;;2.40;;
14116;SDS011;7137;51.436;6.544;2024-02-26T00:21:09;5.73;;;2.10;;
14116;SDS011;7137;51.436;6.544;2024-02-26T00:24:11;6.60;;;2.83;;
14116;SDS011;7137;51.436;6.544;2024-02-26T00:27:14;4.90;;;2.80;;
14116;SDS011;7137;51.436;6.544;2024-02-26T00:30:15;6.50;;;2.67;;
14116;SDS011;7137;51.436;6.544;2024-02-26T00:33:17;5.43;;;2.40;;
14116;SDS011;7137;51.436;6.544;2024-02-26T00:36:19;4.87;;;2.30;;
14116;SDS011;7137;51.436;6.544;2024-02-26T00:39:20;3.53;;;1.93;;
14116;SDS011;7137;51.436;6.544;2024-02-26T00:42:23;4.07;;;2.00;;
14116;SDS011;7137;51.436;6.544;2024-02-26T00:45:24;4.37;;;2.10;;
14116;SDS011;7137;51.436;6.544;2024-02-26T00:48:26;4.20;;;1.80;;
14116;SDS011;7137;51.436;6.544;2024-02-26T00:51:28;4.37;;;2.10;;
14116;SDS011;7137;51.436;6.544;2024-02-26T00:54:29;4.67;;;2.07;;
14116;SDS011;7137;51.436;6.544;2024-02-26T00:57:32;5.17;;;2.10;;
14116;SDS011;7137;51.436;6.544;2024-02-26T01:00:34;3.67;;;1.80;;
14116;SDS011;7137;51.436;6.544;2024-02-26T01:03:36;3.97;;;2.00;;
14116;SDS011;7137;51.436;6.544;2024-02-26T01:06:37;5.57;;;2.00;;
14116;SDS011;7137;51.436;6.544;2024-02-26T01:09:39;5.40;;;2.00;;
14116;SDS011;7137;51.436;6.544;2024-02-26T01:12:41;4.83;;;2.13;;
14116;SDS011;7137;51.436;6.544;2024-02-26T01:15:43;4.20;;;2.00;;
14116;SDS011;7137;51.436;6.544;2024-02-26T01:18:44;4.13;;;2.00;;
14116;SDS011;7137;51.436;6.544;2024-02-26T01:21:46;4.53;;;2.17;;
14116;SDS011;7137;51.436;6.544;2024-02-26T01:24:47;4.33;;;2.13;;
14116;SDS011;7137;51.436;6.544;2024-02-26T01:27:50;5.10;;;2.30;;
14116;SDS011;7137;51.436;6.544;2024-02-26T01:30:52;3.87;;;1.90;;
14116;SDS011;7137;51.436;6.544;2024-02-26T01:33:53;5.77;;;2.00;;
14116;SDS011;7137;51.436;6.544;2024-02-26T01:36:55;3.77;;;1.80;;
14116;SDS011;7137;51.436;6.544;2024-02-26T01:39:57;5.00;;;1.70;;
14116;SDS011;7137;51.436;6.544;2024-02-26T01:43:00;3.43;;;1.60;;
14116;SDS011;7137;51.436;6.544;2024-02-26T01:46:03;5.03;;;1.70;;
14116;SDS011;7137;51.436;6.544;2024-02-26T01:49:05;2.80;;;1.50;;
14116;SDS011;7137;51.436;6.544;2024-02-26T01:52:08;4.10;;;1.60;;
14116;SDS011;7137;51.436;6.544;2024-02-26T01:55:11;3.73;;;1.50;;
14116;SDS011;7137;51.436;6.544;2024-02-26T01:58:15;3.67;;;1.50;;
14116;SDS011;7137;51.436;6.544;2024-02-26T02:01:17;5.07;;;1.67;;
14116;SDS011;7137;51.436;6.544;2024-02-26T02:04:22;3.33;;;1.40;;
14116;SDS011;7137;51.436;6.544;2024-02-26T02:07:24;3.07;;;1.60;;
14116;SDS011;7137;51.436;6.544;2024-02-26T02:10:26;3.67;;;1.53;;
14116;SDS011;7137;51.436;6.544;2024-02-26T02:13:29;4.00;;;1.87;;
14116;SDS011;7137;51.436;6.544;2024-02-26T02:16:31;5.33;;;1.80;;
14116;SDS011;7137;51.436;6.544;2024-02-26T02:19:32;4.17;;;1.80;;
14116;SDS011;7137;51.436;6.544;2024-02-26T02:22:35;4.80;;;2.00;;
14116;SDS011;7137;51.436;6.544;2024-02-26T02:25:38;4.40;;;1.90;;
14116;SDS011;7137;51.436;6.544;2024-02-26T02:28:39;3.93;;;1.90;;
14116;SDS011;7137;51.436;6.544;2024-02-26T02:31:42;3.17;;;1.67;;
14116;SDS011;7137;51.436;6.544;2024-02-26T02:34:44;4.33;;;1.70;;
14116;SDS011;7137;51.436;6.544;2024-02-26T02:37:47;4.00;;;1.70;;
14116;SDS011;7137;51.436;6.544;2024-02-26T02:40:49;5.30;;;2.10;;
14116;SDS011;7137;51.436;6.544;2024-02-26T02:43:50;3.90;;;1.97;;
14116;SDS011;7137;51.436;6.544;2024-02-26T02:46:52;5.37;;;2.37;;
14116;SDS011;7137;51.436;6.544;2024-02-26T02:49:53;4.63;;;2.03;;
14116;SDS011;7137;51.436;6.544;2024-02-26T02:52:56;5.70;;;2.10;;
14116;SDS011;7137;51.436;6.544;2024-02-26T02:55:57;5.47;;;2.40;;
14116;SDS011;7137;51.436;6.544;2024-02-26T02:58:59;3.90;;;2.30;;
14116;SDS011;7137;51.436;6.544;2024-02-26T03:02:01;5.07;;;2.60;;
14116;SDS011;7137;51.436;6.544;2024-02-26T03:05:02;5.07;;;2.80;;
14116;SDS011;7137;51.436;6.544;2024-02-26T03:08:06;5.30;;;2.60;;
14116;SDS011;7137;51.436;6.544;2024-02-26T03:11:07;4.77;;;2.43;;
14116;SDS011;7137;51.436;6.544;2024-02-26T03:14:09;4.27;;;2.47;;
14116;SDS011;7137;51.436;6.544;2024-02-26T03:17:10;3.80;;;2.30;;
14116;SDS011;7137;51.436;6.544;2024-02-26T03:20:12;4.70;;;2.17;;
14116;SDS011;7137;51.436;6.544;2024-02-26T03:23:15;4.17;;;2.27;;
14116;SDS011;7137;51.436;6.544;2024-02-26T03:26:17;5.00;;;2.40;;
14116;SDS011;7137;51.436;6.544;2024-02-26T03:29:18;4.10;;;2.30;;
14116;SDS011;7137;51.436;6.544;2024-02-26T03:32:20;5.40;;;2.50;;
14116;SDS011;7137;51.436;6.544;2024-02-26T03:35:21;5.20;;;2.30;;
14116;SDS011;7137;51.436;6.544;2024-02-26T03:38:24;4.57;;;2.50;;
14116;SDS011;7137;51.436;6.544;2024-02-26T03:41:26;4.90;;;2.40;;
14116;SDS011;7137;51.436;6.544;2024-02-26T03:44:27;4.63;;;2.53;;
14116;SDS011;7137;51.436;6.544;2024-02-26T03:47:29;4.57;;;2.67;;
14116;SDS011;7137;51.436;6.544;2024-02-26T03:50:30;6.90;;;3.90;;
14116;SDS011;7137;51.436;6.544;2024-02-26T03:53:33;6.20;;;3.87;;
14116;SDS011;7137;51.436;6.544;2024-02-26T03:56:35;7.43;;;3.97;;
14116;SDS011;7137;51.436;6.544;2024-02-26T03:59:36;5.97;;;3.73;;
14116;SDS011;7137;51.436;6.544;2024-02-26T04:02:39;5.53;;;3.20;;
14116;SDS011;7137;51.436;6.544;2024-02-26T04:05:41;5.97;;;3.33;;
14116;SDS011;7137;51.436;6.544;2024-02-26T04:08:44;6.50;;;3.20;;
14116;SDS011;7137;51.436;6.544;2024-02-26T04:11:45;6.40;;;3.30;;
14116;SDS011;7137;51.436;6.544;2024-02-26T04:14:47;5.93;;;3.17;;
14116;SDS011;7137;51.436;6.544;2024-02-26T04:17:49;5.40;;;3.40;;
14116;SDS011;7137;51.436;6.544;2024-02-26T04:20:50;7.77;;;3.80;;
14116;SDS011;7137;51.436;6.544;2024-02-26T04:23:53;7.30;;;4.03;;
14116;SDS011;7137;51.436;6.544;2024-02-26T04:26:56;5.87;;;3.33;;
14116;SDS011;7137;51.436;6.544;2024-02-26T04:29:57;6.90;;;3.80;;
14116;SDS011;7137;51.436;6.544;2024-02-26T04:32:59;7.70;;;4.07;;
14116;SDS011;7137;51.436;6.544;2024-02-26T04:36:00;7.93;;;3.97;;
14116;SDS011;7137;51.436;6.544;2024-02-26T04:39:04;8.43;;;4.07;;
14116;SDS011;7137;51.436;6.544;2024-02-26T04:42:06;5.60;;;3.63;;
14116;SDS011;7137;51.436;6.544;2024-02-26T04:45:08;5.80;;;3.30;;
14116;SDS011;7137;51.436;6.544;2024-02-26T04:48:10;5.30;;;3.27;;
14116;SDS011;7137;51.436;6.544;2024-02-26T04:51:11;6.63;;;3.60;;
14116;SDS011;7137;51.436;6.544;2024-02-26T04:54:14;7.70;;;3.50;;
14116;SDS011;7137;51.436;6.544;2024-02-26T04:57:17;7.97;;;3.97;;
14116;SDS011;7137;51.436;6.544;2024-02-26T05:00:19;5.27;;;3.17;;
14116;SDS011;7137;51.436;6.544;2024-02-26T05:03:20;7.03;;;4.47;;
14116;SDS011;7137;51.436;6.544;2024-02-26T05:06:22;8.80;;;4.73;;
14116;SDS011;7137;51.436;6.544;2024-02-26T05:09:25;11.23;;;5.13;;
14116;SDS011;7137;51.436;6.544;2024-02-26T05:12:26;9.20;;;5.30;;
14116;SDS011;7137;51.436;6.544;2024-02-26T05:15:28;9.97;;;6.00;;
14116;SDS011;7137;51.436;6.544;2024-02-26T05:18:29;9.97;;;6.10;;
14116;SDS011;7137;51.436;6.544;2024-02-26T05:21:31;9.13;;;5.90;;
14116;SDS011;7137;51.436;6.544;2024-02-26T05:24:36;9.07;;;6.33;;
14116;SDS011;7137;51.436;6.544;2024-02-26T05:27:38;10.20;;;6.53;;
14116;SDS011;7137;51.436;6.544;2024-02-26T05:30:40;8.13;;;6.73;;
14116;SDS011;7137;51.436;6.544;2024-02-26T05:33:41;8.63;;;6.53;;
14116;SDS011;7137;51.436;6.544;2024-02-26T05:36:43;9.60;;;6.60;;
14116;SDS011;7137;51.436;6.544;2024-02-26T05:39:46;9.50;;;6.70;;
14116;SDS011;7137;51.436;6.544;2024-02-26T05:42:47;8.97;;;6.40;;
14116;SDS011;7137;51.436;6.544;2024-02-26T05:45:49;7.87;;;5.67;;
14116;SDS011;7137;51.436;6.544;2024-02-26T05:48:51;8.47;;;6.47;;
14116;SDS011;7137;51.436;6.544;2024-02-26T05:51:53;8.67;;;5.50;;
14116;SDS011;7137;51.436;6.544;2024-02-26T05:54:56;7.70;;;5.33;;
14116;SDS011;7137;51.436;6.544;2024-02-26T05:57:58;9.13;;;5.57;;
14116;SDS011;7137;51.436;6.544;2024-02-26T06:00:59;9.10;;;5.00;;
14116;SDS011;7137;51.436;6.544;2024-02-26T06:04:01;7.00;;;4.97;;
14116;SDS011;7137;51.436;6.544;2024-02-26T06:07:02;9.17;;;5.30;;
14116;SDS011;7137;51.436;6.544;2024-02-26T06:10:07;6.57;;;4.97;;
14116;SDS011;7137;51.436;6.544;2024-02-26T06:13:08;9.43;;;6.10;;
14116;SDS011;7137;51.436;6.544;2024-02-26T06:16:10;8.17;;;5.77;;
14116;SDS011;7137;51.436;6.544;2024-02-26T06:19:11;7.20;;;5.23;;
14116;SDS011;7137;51.436;6.544;2024-02-26T06:22:13;9.53;;;6.00;;
14116;SDS011;7137;51.436;6.544;2024-02-26T06:25:16;7.53;;;5.60;;
14116;SDS011;7137;51.436;6.544;2024-02-26T06:28:17;9.00;;;5.37;;
14116;SDS011;7137;51.436;6.544;2024-02-26T06:31:19;9.03;;;5.80;;
14116;SDS011;7137;51.436;6.544;2024-02-26T06:34:21;11.53;;;6.20;;
14116;SDS011;7137;51.436;6.544;2024-02-26T06:37:23;9.93;;;6.00;;
14116;SDS011;7137;51.436;6.544;2024-02-26T06:40:26;9.37;;;5.60;;
14116;SDS011;7137;51.436;6.544;2024-02-26T06:43:28;8.50;;;5.50;;
14116;SDS011;7137;51.436;6.544;2024-02-26T06:46:29;9.60;;;5.67;;
14116;SDS011;7137;51.436;6.544;2024-02-26T06:49:31;8.77;;;5.13;;
14116;SDS011;7137;51.436;6.544;2024-02-26T06:52:33;7.80;;;4.93;;
14116;SDS011;7137;51.436;6.544;2024-02-26T06:55:35;7.93;;;5.37;;
14116;SDS011;7137;51.436;6.544;2024-02-26T06:58:40;8.43;;;5.63;;
14116;SDS011;7137;51.436;6.544;2024-02-26T07:01:41;8.20;;;5.07;;
14116;SDS011;7137;51.436;6.544;2024-02-26T07:04:43;8.50;;;5.00;;
14116;SDS011;7137;51.436;6.544;2024-02-26T07:07:44;7.20;;;5.10;;
14116;SDS011;7137;51.436;6.544;2024-02-26T07:10:47;8.20;;;4.90;;
14116;SDS011;7137;51.436;6.544;2024-02-26T07:13:49;6.23;;;4.90;;
14116;SDS011;7137;51.436;6.544;2024-02-26T07:16:50;9.33;;;5.17;;
14116;SDS011;7137;51.436;6.544;2024-02-26T07:19:52;7.13;;;4.90;;
14116;SDS011;7137;51.436;6.544;2024-02-26T07:22:54;7.30;;;5.10;;
14116;SDS011;7137;51.436;6.544;2024-02-26T07:25:57;9.60;;;4.60;;
14116;SDS011;7137;51.436;6.544;2024-02-26T07:28:58;8.07;;;5.20;;
14116;SDS011;7137;51.436;6.544;2024-02-26T07:32:00;7.67;;;4.70;;
14116;SDS011;7137;51.436;6.544;2024-02-26T07:35:01;7.53;;;5.33;;
14116;SDS011;7137;51.436;6.544;2024-02-26T07:38:03;7.73;;;5.40;;
14116;SDS011;7137;51.436;6.544;2024-02-26T07:41:06;10.13;;;5.13;;
14116;SDS011;7137;51.436;6.544;2024-02-26T07:44:08;10.03;;;6.30;;
14116;SDS011;7137;51.436;6.544;2024-02-26T07:47:10;10.10;;;5.63;;
14116;SDS011;7137;51.436;6.544;2024-02-26T07:50:11;8.13;;;5.53;;
14116;SDS011;7137;51.436;6.544;2024-02-26T07:53:13;7.97;;;5.67;;
14116;SDS011;7137;51.436;6.544;2024-02-26T07:56:16;8.20;;;5.80;;
14116;SDS011;7137;51.436;6.544;2024-02-26T07:59:18;10.73;;;6.20;;
14116;SDS011;7137;51.436;6.544;2024-02-26T08:02:20;10.40;;;6.53;;
14116;SDS011;7137;51.436;6.544;2024-02-26T08:05:22;9.60;;;6.10;;
14116;SDS011;7137;51.436;6.544;2024-02-26T08:08:24;8.87;;;6.27;;
14116;SDS011;7137;51.436;6.544;2024-02-26T08:11:27;7.30;;;5.40;;
14116;SDS011;7137;51.436;6.544;2024-02-26T08:14:29;9.03;;;5.80;;
14116;SDS011;7137;51.436;6.544;2024-02-26T08:17:32;9.87;;;5.90;;
14116;SDS011;7137;51.436;6.544;2024-02-26T08:20:34;9.77;;;6.13;;
14116;SDS011;7137;51.436;6.544;2024-02-26T08:23:35;10.00;;;6.37;;
14116;SDS011;7137;51.436;6.544;2024-02-26T08:26:38;10.60;;;6.50;;
14116;SDS011;7137;51.436;6.544;2024-02-26T08:29:40;13.40;;;7.33;;
14116;SDS011;7137;51.436;6.544;2024-02-26T08:32:41;10.27;;;6.30;;
14116;SDS011;7137;51.436;6.544;2024-02-26T08:35:44;9.07;;;6.17;;
14116;SDS011;7137;51.436;6.544;2024-02-26T08:38:45;11.17;;;6.87;;
14116;SDS011;7137;51.436;6.544;2024-02-26T08:41:48;10.93;;;6.37;;
14116;SDS011;7137;51.436;6.544;2024-02-26T08:44:50;9.57;;;5.13;;
14116;SDS011;7137;51.436;6.544;2024-02-26T08:47:51;9.17;;;5.17;;
14116;SDS011;7137;51.436;6.544;2024-02-26T08:50:53;7.20;;;5.33;;
14116;SDS011;7137;51.436;6.544;2024-02-26T08:53:54;11.13;;;5.63;;
14116;SDS011;7137;51.436;6.544;2024-02-26T08:56:57;8.40;;;5.40;;
14116;SDS011;7137;51.436;6.544;2024-02-26T08:59:59;9.33;;;5.90;;
14116;SDS011;7137;51.436;6.544;2024-02-26T09:03:00;12.77;;;6.43;;
14116;SDS011;7137;51.436;6.544;2024-02-26T09:06:02;10.60;;;6.40;;
14116;SDS011;7137;51.436;6.544;2024-02-26T09:09:03;8.20;;;5.13;;
14116;SDS011;7137;51.436;6.544;2024-02-26T09:12:07;7.27;;;5.43;;
14116;SDS011;7137;51.436;6.544;2024-02-26T09:15:09;8.80;;;5.20;;
14116;SDS011;7137;51.436;6.544;2024-02-26T09:18:11;7.87;;;5.43;;
14116;SDS011;7137;51.436;6.544;2024-02-26T09:21:14;9.77;;;5.90;;
14116;SDS011;7137;51.436;6.544;2024-02-26T09:24:23;9.87;;;5.40;;
14116;SDS011;7137;51.436;6.544;2024-02-26T09:27:26;7.93;;;5.37;;
14116;SDS011;7137;51.436;6.544;2024-02-26T09:30:27;9.03;;;5.73;;
14116;SDS011;7137;51.436;6.544;2024-02-26T09:33:29;8.67;;;6.63;;
14116;SDS011;7137;51.436;6.544;2024-02-26T09:36:30;9.73;;;6.47;;
14116;SDS011;7137;51.436;6.544;2024-02-26T09:39:32;8.83;;;6.13;;
14116;SDS011;7137;51.436;6.544;2024-02-26T09:42:34;10.77;;;6.27;;
14116;SDS011;7137;51.436;6.544;2024-02-26T09:45:36;9.33;;;6.90;;
14116;SDS011;7137;51.436;6.544;2024-02-26T09:48:38;10.80;;;6.80;;
14116;SDS011;7137;51.436;6.544;2024-02-26T09:51:41;10.50;;;6.63;;
14116;SDS011;7137;51.436;6.544;2024-02-26T09:54:45;11.40;;;6.77;;
14116;SDS011;7137;51.436;6.544;2024-02-26T09:57:50;10.07;;;5.70;;
14116;SDS011;7137;51.436;6.544;2024-02-26T10:00:53;8.13;;;5.17;;
14116;SDS011;7137;51.436;6.544;2024-02-26T10:03:58;9.13;;;5.07;;
14116;SDS011;7137;51.436;6.544;2024-02-26T10:07:00;8.87;;;5.33;;
14116;SDS011;7137;51.436;6.544;2024-02-26T10:10:03;8.47;;;5.13;;
14116;SDS011;7137;51.436;6.544;2024-02-26T10:13:07;9.80;;;4.87;;
14116;SDS011;7137;51.436;6.544;2024-02-26T10:16:11;8.47;;;5.60;;
14116;SDS011;7137;51.436;6.544;2024-02-26T10:19:24;7.63;;;5.30;;
14116;SDS011;7137;51.436;6.544;2024-02-26T10:22:27;8.23;;;5.60;;
14116;SDS011;7137;51.436;6.544;2024-02-26T10:25:28;10.10;;;5.67;;
14116;SDS011;7137;51.436;6.544;2024-02-26T10:28:32;9.60;;;5.20;;
14116;SDS011;7137;51.436;6.544;2024-02-26T10:31:34;9.53;;;5.43;;
14116;SDS011;7137;51.436;6.544;2024-02-26T10:34:35;8.80;;;5.97;;
14116;SDS011;7137;51.436;6.544;2024-02-26T10:37:38;9.77;;;6.10;;
14116;SDS011;7137;51.436;6.544;2024-02-26T10:40:40;8.53;;;5.80;;
14116;SDS011;7137;51.436;6.544;2024-02-26T10:43:44;7.90;;;6.13;;
14116;SDS011;7137;51.436;6.544;2024-02-26T10:46:46;8.53;;;6.40;;
14116;SDS011;7137;51.436;6.544;2024-02-26T10:49:48;9.23;;;6.07;;
14116;SDS011;7137;51.436;6.544;2024-02-26T10:52:51;8.73;;;5.73;;
14116;SDS011;7137;51.436;6.544;2024-02-26T10:55:57;7.77;;;5.73;;
14116;SDS011;7137;51.436;6.544;2024-02-26T10:59:03;8.10;;;5.40;;
14116;SDS011;7137;51.436;6.544;2024-02-26T11:02:07;8.47;;;6.10;;
14116;SDS011;7137;51.436;6.544;2024-02-26T11:05:10;7.67;;;6.10;;
14116;SDS011;7137;51.436;6.544;2024-02-26T11:08:13;7.80;;;5.90;;
14116;SDS011;7137;51.436;6.544;2024-02-26T11:11:15;8.70;;;5.83;;
14116;SDS011;7137;51.436;6.544;2024-02-26T11:14:19;7.77;;;5.30;;
14116;SDS011;7137;51.436;6.544;2024-02-26T11:17:21;8.30;;;5.70;;
14116;SDS011;7137;51.436;6.544;2024-02-26T11:20:26;8.20;;;5.67;;
14116;SDS011;7137;51.436;6.544;2024-02-26T11:23:29;7.63;;;5.50;;
14116;SDS011;7137;51.436;6.544;2024-02-26T11:26:32;8.40;;;5.50;;
14116;SDS011;7137;51.436;6.544;2024-02-26T11:29:38;6.50;;;5.50;;
14116;SDS011;7137;51.436;6.544;2024-02-26T11:32:43;7.10;;;5.50;;
14116;SDS011;7137;51.436;6.544;2024-02-26T11:35:45;7.20;;;5.93;;
14116;SDS011;7137;51.436;6.544;2024-02-26T11:38:47;7.80;;;5.97;;
14116;SDS011;7137;51.436;6.544;2024-02-26T11:41:51;7.33;;;5.57;;
14116;SDS011;7137;51.436;6.544;2024-02-26T11:44:54;8.17;;;5.83;;
14116;SDS011;7137;51.436;6.544;2024-02-26T11:48:00;8.00;;;5.97;;
14116;SDS011;7137;51.436;6.544;2024-02-26T11:51:02;7.70;;;6.10;;
14116;SDS011;7137;51.436;6.544;2024-02-26T11:54:06;8.20;;;6.17;;
14116;SDS011;7137;51.436;6.544;2024-02-26T11:57:20;8.23;;;6.80;;
14116;SDS011;7137;51.436;6.544;2024-02-26T12:00:24;8.57;;;7.17;;
14116;SDS011;7137;51.436;6.544;2024-02-26T12:03:27;9.50;;;7.53;;
14116;SDS011;7137;51.436;6.544;2024-02-26T12:06:29;10.43;;;7.60;;
14116;SDS011;7137;51.436;6.544;2024-02-26T12:09:34;11.07;;;8.30;;
14116;SDS011;7137;51.436;6.544;2024-02-26T12:12:37;10.77;;;8.67;;
14116;SDS011;7137;51.436;6.544;2024-02-26T12:15:41;13.20;;;9.47;;
14116;SDS011;7137;51.436;6.544;2024-02-26T12:18:44;11.90;;;9.10;;
14116;SDS011;7137;51.436;6.544;2024-02-26T12:21:45;11.57;;;9.40;;
14116;SDS011;7137;51.436;6.544;2024-02-26T12:24:58;9.87;;;8.37;;
14116;SDS011;7137;51.436;6.544;2024-02-26T12:28:00;10.43;;;8.77;;
14116;SDS011;7137;51.436;6.544;2024-02-26T12:31:04;10.83;;;8.83;;
14116;SDS011;7137;51.436;6.544;2024-02-26T12:34:06;10.00;;;7.10;;
14116;SDS011;7137;51.436;6.544;2024-02-26T12:37:09;10.00;;;8.07;;
14116;SDS011;7137;51.436;6.544;2024-02-26T12:40:11;9.40;;;6.70;;
14116;SDS011;7137;51.436;6.544;2024-02-26T12:43:13;9.90;;;7.97;;
14116;SDS011;7137;51.436;6.544;2024-02-26T12:46:16;11.23;;;7.83;;
14116;SDS011;7137;51.436;6.544;2024-02-26T12:49:17;9.90;;;7.60;;
14116;SDS011;7137;51.436;6.544;2024-02-26T12:52:19;8.07;;;6.10;;
14116;SDS011;7137;51.436;6.544;2024-02-26T12:55:21;10.10;;;7.70;;
14116;SDS011;7137;51.436;6.544;2024-02-26T12:58:23;10.27;;;7.60;;
14116;SDS011;7137;51.436;6.544;2024-02-26T13:01:29;12.40;;;8.17;;
14116;SDS011;7137;51.436;6.544;2024-02-26T13:04:31;9.97;;;7.40;;
14116;SDS011;7137;51.436;6.544;2024-02-26T13:07:34;11.57;;;7.23;;
14116;SDS011;7137;51.436;6.544;2024-02-26T13:10:36;9.37;;;7.43;;
14116;SDS011;7137;51.436;6.544;2024-02-26T13:13:37;10.63;;;7.07;;
14116;SDS011;7137;51.436;6.544;2024-02-26T13:16:40;10.53;;;6.93;;
14116;SDS011;7137;51.436;6.544;2024-02-26T13:19:48;10.10;;;6.93;;
14116;SDS011;7137;51.436;6.544;2024-02-26T13:22:50;8.80;;;7.10;;
14116;SDS011;7137;51.436;6.544;2024-02-26T13:25:55;9.27;;;6.80;;
14116;SDS011;7137;51.436;6.544;2024-02-26T13:29:00;6.67;;;4.70;;
14116;SDS011;7137;51.436;6.544;2024-02-26T13:32:05;8.53;;;6.37;;
14116;SDS011;7137;51.436;6.544;2024-02-26T13:35:07;9.10;;;6.53;;
14116;SDS011;7137;51.436;6.544;2024-02-26T13:38:10;8.50;;;5.90;;
14116;SDS011;7137;51.436;6.544;2024-02-26T13:41:12;8.17;;;5.97;;
14116;SDS011;7137;51.436;6.544;2024-02-26T13:44:14;7.97;;;6.20;;
14116;SDS011;7137;51.436;6.544;2024-02-26T13:47:17;7.37;;;5.90;;
14116;SDS011;7137;51.436;6.544;2024-02-26T13:50:18;7.03;;;5.20;;
14116;SDS011;7137;51.436;6.544;2024-02-26T13:53:23;7.17;;;5.40;;
14116;SDS011;7137;51.436;6.544;2024-02-26T13:56:24;6.87;;;4.93;;
14116;SDS011;7137;51.436;6.544;2024-02-26T13:59:26;6.83;;;5.10;;
14116;SDS011;7137;51.436;6.544;2024-02-26T14:02:29;7.03;;;4.97;;
14116;SDS011;7137;51.436;6.544;2024-02-26T14:05:31;6.57;;;4.40;;
14116;SDS011;7137;51.436;6.544;2024-02-26T14:08:32;6.10;;;4.27;;
14116;SDS011;7137;51.436;6.544;2024-02-26T14:11:34;6.70;;;4.37;;
14116;SDS011;7137;51.436;6.544;2024-02-26T14:14:36;6.03;;;4.50;;
14116;SDS011;7137;51.436;6.544;2024-02-26T14:17:40;7.00;;;4.70;;
14116;SDS011;7137;51.436;6.544;2024-02-26T14:20:43;6.60;;;5.17;;
14116;SDS011;7137;51.436;6.544;2024-02-26T14:23:45;7.67;;;5.40;;
14116;SDS011;7137;51.436;6.544;2024-02-26T14:26:47;6.87;;;4.93;;
14116;SDS011;7137;51.436;6.544;2024-02-26T14:29:48;6.90;;;4.70;;
14116;SDS011;7137;51.436;6.544;2024-02-26T14:32:51;5.97;;;4.60;;
14116;SDS011;7137;51.436;6.544;2024-02-26T14:35:53;6.53;;;4.73;;
14116;SDS011;7137;51.436;6.544;2024-02-26T14:38:55;7.43;;;5.40;;
14116;SDS011;7137;51.436;6.544;2024-02-26T14:41:57;6.33;;;5.00;;
14116;SDS011;7137;51.436;6.544;2024-02-26T14:44:59;7.40;;;5.13;;
14116;SDS011;7137;51.436;6.544;2024-02-26T14:48:02;6.93;;;5.03;;
14116;SDS011;7137;51.436;6.544;2024-02-26T14:51:04;6.67;;;4.97;;
14116;SDS011;7137;51.436;6.544;2024-02-26T14:54:06;6.33;;;4.60;;
14116;SDS011;7137;51.436;6.544;2024-02-26T14:57:09;6.70;;;4.80;;
14116;SDS011;7137;51.436;6.544;2024-02-26T15:00:10;8.70;;;5.47;;
14116;SDS011;7137;51.436;6.544;2024-02-26T15:03:14;8.63;;;5.57;;
14116;SDS011;7137;51.436;6.544;2024-02-26T15:06:17;8.40;;;5.83;;
14116;SDS011;7137;51.436;6.544;2024-02-26T15:09:18;7.80;;;6.30;;
14116;SDS011;7137;51.436;6.544;2024-02-26T15:12:21;8.07;;;6.70;;
14116;SDS011;7137;51.436;6.544;2024-02-26T15:15:22;9.30;;;6.80;;
14116;SDS011;7137;51.436;6.544;2024-02-26T15:18:25;9.33;;;6.83;;
14116;SDS011;7137;51.436;6.544;2024-02-26T15:21:27;10.73;;;7.00;;
14116;SDS011;7137;51.436;6.544;2024-02-26T15:24:28;9.93;;;7.33;;
14116;SDS011;7137;51.436;6.544;2024-02-26T15:27:30;10.30;;;7.57;;
14116;SDS011;7137;51.436;6.544;2024-02-26T15:30:32;9.53;;;6.63;;
14116;SDS011;7137;51.436;6.544;2024-02-26T15:33:34;11.20;;;8.17;;
14116;SDS011;7137;51.436;6.544;2024-02-26T15:36:36;12.37;;;7.87;;
14116;SDS011;7137;51.436;6.544;2024-02-26T15:39:37;11.37;;;8.70;;
14116;SDS011;7137;51.436;6.544;2024-02-26T15:42:39;10.17;;;7.20;;
14116;SDS011;7137;51.436;6.544;2024-02-26T15:45:41;12.13;;;8.67;;
14116;SDS011;7137;51.436;6.544;2024-02-26T15:48:44;10.87;;;8.17;;
14116;SDS011;7137;51.436;6.544;2024-02-26T15:51:45;13.23;;;9.40;;
14116;SDS011;7137;51.436;6.544;2024-02-26T15:54:47;12.63;;;10.07;;
14116;SDS011;7137;51.436;6.544;2024-02-26T15:57:48;14.13;;;9.83;;
14116;SDS011;7137;51.436;6.544;2024-02-26T16:00:50;14.53;;;10.30;;
14116;SDS011;7137;51.436;6.544;2024-02-26T16:03:54;15.00;;;10.83;;
14116;SDS011;7137;51.436;6.544;2024-02-26T16:06:56;14.50;;;10.13;;
14116;SDS011;7137;51.436;6.544;2024-02-26T16:10:02;13.63;;;9.90;;
14116;SDS011;7137;51.436;6.544;2024-02-26T16:13:04;15.37;;;11.60;;
14116;SDS011;7137;51.436;6.544;2024-02-26T16:16:07;12.03;;;8.43;;
14116;SDS011;7137;51.436;6.544;2024-02-26T16:19:15;16.57;;;11.60;;
14116;SDS011;7137;51.436;6.544;2024-02-26T16:22:19;15.17;;;10.50;;
14116;SDS011;7137;51.436;6.544;2024-02-26T16:25:20;14.60;;;11.37;;
14116;SDS011;7137;51.436;6.544;2024-02-26T16:28:23;15.63;;;11.43;;
14116;SDS011;7137;51.436;6.544;2024-02-26T16:31:26;15.93;;;11.67;;
14116;SDS011;7137;51.436;6.544;2024-02-26T16:34:30;15.83;;;11.83;;
14116;SDS011;7137;51.436;6.544;2024-02-26T16:37:32;15.70;;;11.63;;
14116;SDS011;7137;51.436;6.544;2024-02-26T16:40:34;15.77;;;10.87;;
14116;SDS011;7137;51.436;6.544;2024-02-26T16:43:36;17.73;;;12.23;;
14116;SDS011;7137;51.436;6.544;2024-02-26T16:46:38;15.43;;;11.47;;
14116;SDS011;7137;51.436;6.544;2024-02-26T16:49:40;15.87;;;12.83;;
14116;SDS011;7137;51.436;6.544;2024-02-26T16:52:42;14.87;;;11.43;;
14116;SDS011;7137;51.436;6.544;2024-02-26T16:55:44;14.13;;;11.00;;
14116;SDS011;7137;51.436;6.544;2024-02-26T16:58:47;15.53;;;11.37;;
14116;SDS011;7137;51.436;6.544;2024-02-26T17:01:48;15.60;;;10.83;;
14116;SDS011;7137;51.436;6.544;2024-02-26T17:04:51;16.93;;;11.97;;
14116;SDS011;7137;51.436;6.544;2024-02-26T17:07:53;14.93;;;11.17;;
14116;SDS011;7137;51.436;6.544;2024-02-26T17:10:54;14.47;;;10.67;;
14116;SDS011;7137;51.436;6.544;2024-02-26T17:13:56;12.73;;;10.27;;
14116;SDS011;7137;51.436;6.544;2024-02-26T17:16:57;14.30;;;11.03;;
14116;SDS011;7137;51.436;6.544;2024-02-26T17:20:01;12.73;;;10.87;;
14116;SDS011;7137;51.436;6.544;2024-02-26T17:23:04;13.70;;;9.67;;
14116;SDS011;7137;51.436;6.544;2024-02-26T17:26:06;13.33;;;10.53;;
14116;SDS011;7137;51.436;6.544;2024-02-26T17:29:08;13.50;;;10.50;;
14116;SDS011;7137;51.436;6.544;2024-02-26T17:32:11;13.83;;;10.10;;
14116;SDS011;7137;51.436;6.544;2024-02-26T17:35:14;14.03;;;10.53;;
14116;SDS011;7137;51.436;6.544;2024-02-26T17:38:17;14.73;;;10.17;;
14116;SDS011;7137;51.436;6.544;2024-02-26T17:41:18;13.33;;;10.00;;
14116;SDS011;7137;51.436;6.544;2024-02-26T17:44:20;14.07;;;10.57;;
14116;SDS011;7137;51.436;6.544;2024-02-26T17:47:24;16.93;;;12.40;;
14116;SDS011;7137;51.436;6.544;2024-02-26T17:50:27;16.63;;;11.77;;
14116;SDS011;7137;51.436;6.544;2024-02-26T17:53:29;14.50;;;11.70;;
14116;SDS011;7137;51.436;6.544;2024-02-26T17:56:30;15.00;;;12.87;;
14116;SDS011;7137;51.436;6.544;2024-02-26T17:59:32;14.17;;;11.23;;
14116;SDS011;7137;51.436;6.544;2024-02-26T18:02:33;15.00;;;11.87;;
14116;SDS011;7137;51.436;6.544;2024-02-26T18:05:36;15.77;;;12.63;;
14116;SDS011;7137;51.436;6.544;2024-02-26T18:08:38;16.13;;;12.70;;
14116;SDS011;7137;51.436;6.544;2024-02-26T18:11:39;12.10;;;9.23;;
14116;SDS011;7137;51.436;6.544;2024-02-26T18:14:43;15.10;;;11.93;;
14116;SDS011;7137;51.436;6.544;2024-02-26T18:17:45;15.83;;;12.40;;
14116;SDS011;7137;51.436;6.544;2024-02-26T18:20:49;14.57;;;12.50;;
14116;SDS011;7137;51.436;6.544;2024-02-26T18:23:51;17.13;;;13.57;;
14116;SDS011;7137;51.436;6.544;2024-02-26T18:26:52;17.60;;;14.00;;
14116;SDS011;7137;51.436;6.544;2024-02-26T18:29:54;15.33;;;11.37;;